sensor_id;sensor_type;location;lat;lon;timestamp;P1;durP1;ratioP1;P2;durP2;ratioP2
45077;SDS011;60508;42.622;25.416;2023-11-21T00:01:32;3.35;;;2.60;;
45077;SDS011;60508;42.622;25.416;2023-11-21T00:03:58;3.25;;;2.10;;
45077;SDS011;60508;42.622;25.416;2023-11-21T00:06:25;4.53;;;3.13;;
45077;SDS011;60508;42.622;25.416;2023-11-21T00:08:51;2.17;;;2.00;;
45077;SDS011;60508;42.622;25.416;2023-11-21T00:11:18;4.38;;;3.00;;
45077;SDS011;60508;42.622;25.416;2023-11-21T00:13:54;4.10;;;2.40;;
45077;SDS011;60508;42.622;25.416;2023-11-21T00:16:20;2.97;;;2.40;;
45077;SDS011;60508;42.622;25.416;2023-11-21T00:18:48;3.00;;;2.63;;
45077;SDS011;60508;42.622;25.416;2023-11-21T00:21:23;4.10;;;3.33;;
45077;SDS011;60508;42.622;25.416;2023-11-21T00:23:50;3.47;;;2.42;;
45077;SDS011;60508;42.622;25.416;2023-11-21T00:26:16;7.65;;;2.50;;
45077;SDS011;60508;42.622;25.416;2023-11-21T00:28:47;2.83;;;2.13;;
45077;SDS011;60508;42.622;25.416;2023-11-21T00:31:14;3.10;;;2.45;;
45077;SDS011;60508;42.622;25.416;2023-11-21T00:33:40;2.55;;;2.30;;
45077;SDS011;60508;42.622;25.416;2023-11-21T00:36:07;2.35;;;1.65;;
45077;SDS011;60508;42.622;25.416;2023-11-21T00:38:36;8.73;;;2.00;;
45077;SDS011;60508;42.622;25.416;2023-11-21T00:41:03;5.50;;;1.70;;
45077;SDS011;60508;42.622;25.416;2023-11-21T00:43:32;3.45;;;1.50;;
45077;SDS011;60508;42.622;25.416;2023-11-21T00:46:12;2.42;;;1.58;;
45077;SDS011;60508;42.622;25.416;2023-11-21T00:48:44;5.05;;;2.25;;
45077;SDS011;60508;42.622;25.416;2023-11-21T00:51:10;8.60;;;3.20;;
45077;SDS011;60508;42.622;25.416;2023-11-21T00:53:47;5.53;;;3.53;;
45077;SDS011;60508;42.622;25.416;2023-11-21T00:56:14;3.38;;;2.55;;
45077;SDS011;60508;42.622;25.416;2023-11-21T00:58:42;6.47;;;3.30;;
45077;SDS011;60508;42.622;25.416;2023-11-21T01:01:13;4.07;;;3.22;;
45077;SDS011;60508;42.622;25.416;2023-11-21T01:03:40;8.77;;;5.70;;
45077;SDS011;60508;42.622;25.416;2023-11-21T01:06:18;7.53;;;4.03;;
45077;SDS011;60508;42.622;25.416;2023-11-21T01:08:45;9.38;;;4.40;;
45077;SDS011;60508;42.622;25.416;2023-11-21T01:11:12;4.72;;;3.30;;
45077;SDS011;60508;42.622;25.416;2023-11-21T01:13:39;4.80;;;3.45;;
45077;SDS011;60508;42.622;25.416;2023-11-21T01:16:15;6.80;;;3.70;;
45077;SDS011;60508;42.622;25.416;2023-11-21T01:18:41;11.73;;;7.40;;
45077;SDS011;60508;42.622;25.416;2023-11-21T01:21:08;8.25;;;3.10;;
45077;SDS011;60508;42.622;25.416;2023-11-21T01:23:35;8.85;;;4.32;;
45077;SDS011;60508;42.622;25.416;2023-11-21T01:26:01;9.00;;;4.68;;
45077;SDS011;60508;42.622;25.416;2023-11-21T01:28:38;8.60;;;3.45;;
45077;SDS011;60508;42.622;25.416;2023-11-21T01:31:05;10.27;;;3.58;;
45077;SDS011;60508;42.622;25.416;2023-11-21T01:33:33;3.95;;;2.97;;
45077;SDS011;60508;42.622;25.416;2023-11-21T01:35:59;7.70;;;3.47;;
45077;SDS011;60508;42.622;25.416;2023-11-21T01:38:26;2.90;;;2.17;;
45077;SDS011;60508;42.622;25.416;2023-11-21T01:40:53;4.18;;;1.80;;
45077;SDS011;60508;42.622;25.416;2023-11-21T01:43:19;2.97;;;2.55;;
45077;SDS011;60508;42.622;25.416;2023-11-21T01:45:56;2.70;;;1.75;;
45077;SDS011;60508;42.622;25.416;2023-11-21T01:48:24;6.28;;;2.08;;
45077;SDS011;60508;42.622;25.416;2023-11-21T01:50:52;2.22;;;1.50;;
45077;SDS011;60508;42.622;25.416;2023-11-21T01:53:21;3.78;;;1.58;;
45077;SDS011;60508;42.622;25.416;2023-11-21T01:55:49;5.63;;;2.08;;
45077;SDS011;60508;42.622;25.416;2023-11-21T01:58:15;5.43;;;3.10;;
45077;SDS011;60508;42.622;25.416;2023-11-21T02:00:42;5.80;;;3.53;;
45077;SDS011;60508;42.622;25.416;2023-11-21T02:03:19;4.50;;;2.90;;
45077;SDS011;60508;42.622;25.416;2023-11-21T02:05:48;3.78;;;2.88;;
45077;SDS011;60508;42.622;25.416;2023-11-21T02:08:14;3.28;;;2.88;;
45077;SDS011;60508;42.622;25.416;2023-11-21T02:10:42;5.50;;;3.15;;
45077;SDS011;60508;42.622;25.416;2023-11-21T02:13:09;3.45;;;2.95;;
45077;SDS011;60508;42.622;25.416;2023-11-21T02:15:37;8.30;;;2.97;;
45077;SDS011;60508;42.622;25.416;2023-11-21T02:18:05;6.82;;;3.30;;
45077;SDS011;60508;42.622;25.416;2023-11-21T02:20:39;5.00;;;2.80;;
45077;SDS011;60508;42.622;25.416;2023-11-21T02:23:07;2.97;;;2.22;;
45077;SDS011;60508;42.622;25.416;2023-11-21T02:25:34;2.83;;;2.53;;
45077;SDS011;60508;42.622;25.416;2023-11-21T02:28:03;4.97;;;2.72;;
45077;SDS011;60508;42.622;25.416;2023-11-21T02:30:30;5.43;;;2.88;;
45077;SDS011;60508;42.622;25.416;2023-11-21T02:33:08;4.22;;;2.22;;
45077;SDS011;60508;42.622;25.416;2023-11-21T02:35:36;6.53;;;2.78;;
45077;SDS011;60508;42.622;25.416;2023-11-21T02:38:04;5.22;;;2.33;;
45077;SDS011;60508;42.622;25.416;2023-11-21T02:40:30;5.43;;;2.30;;
45077;SDS011;60508;42.622;25.416;2023-11-21T02:42:57;3.58;;;2.00;;
45077;SDS011;60508;42.622;25.416;2023-11-21T02:45:35;4.20;;;2.73;;
45077;SDS011;60508;42.622;25.416;2023-11-21T02:48:02;4.60;;;2.40;;
45077;SDS011;60508;42.622;25.416;2023-11-21T02:50:31;4.15;;;2.13;;
45077;SDS011;60508;42.622;25.416;2023-11-21T02:52:57;2.97;;;2.60;;
45077;SDS011;60508;42.622;25.416;2023-11-21T02:55:26;4.72;;;2.80;;
45077;SDS011;60508;42.622;25.416;2023-11-21T02:57:54;4.90;;;3.40;;
45077;SDS011;60508;42.622;25.416;2023-11-21T03:00:32;4.95;;;2.50;;
45077;SDS011;60508;42.622;25.416;2023-11-21T03:02:59;4.07;;;3.08;;
45077;SDS011;60508;42.622;25.416;2023-11-21T03:05:26;9.07;;;2.65;;
45077;SDS011;60508;42.622;25.416;2023-11-21T03:07:55;2.33;;;2.13;;
45077;SDS011;60508;42.622;25.416;2023-11-21T03:10:32;7.50;;;3.72;;
45077;SDS011;60508;42.622;25.416;2023-11-21T03:12:59;7.30;;;4.35;;
45077;SDS011;60508;42.622;25.416;2023-11-21T03:15:25;9.82;;;4.13;;
45077;SDS011;60508;42.622;25.416;2023-11-21T03:18:02;5.47;;;4.05;;
45077;SDS011;60508;42.622;25.416;2023-11-21T03:20:30;6.88;;;5.07;;
45077;SDS011;60508;42.622;25.416;2023-11-21T03:22:56;5.05;;;4.15;;
45077;SDS011;60508;42.622;25.416;2023-11-21T03:25:23;4.45;;;3.92;;
45077;SDS011;60508;42.622;25.416;2023-11-21T03:27:50;10.73;;;4.57;;
45077;SDS011;60508;42.622;25.416;2023-11-21T03:30:28;2.93;;;2.73;;
45077;SDS011;60508;42.622;25.416;2023-11-21T03:32:55;7.75;;;2.55;;
45077;SDS011;60508;42.622;25.416;2023-11-21T03:35:21;2.70;;;2.20;;
45077;SDS011;60508;42.622;25.416;2023-11-21T03:37:58;7.95;;;2.25;;
45077;SDS011;60508;42.622;25.416;2023-11-21T03:40:25;3.72;;;2.70;;
45077;SDS011;60508;42.622;25.416;2023-11-21T03:42:52;3.63;;;2.30;;
45077;SDS011;60508;42.622;25.416;2023-11-21T03:45:30;4.40;;;2.92;;
45077;SDS011;60508;42.622;25.416;2023-11-21T03:47:57;13.40;;;8.98;;
45077;SDS011;60508;42.622;25.416;2023-11-21T03:50:24;7.47;;;4.55;;
45077;SDS011;60508;42.622;25.416;2023-11-21T03:52:50;4.72;;;3.35;;
45077;SDS011;60508;42.622;25.416;2023-11-21T03:55:16;6.90;;;3.50;;
45077;SDS011;60508;42.622;25.416;2023-11-21T03:57:54;2.67;;;2.00;;
45077;SDS011;60508;42.622;25.416;2023-11-21T04:00:20;2.95;;;2.42;;
45077;SDS011;60508;42.622;25.416;2023-11-21T04:02:47;4.22;;;3.10;;
45077;SDS011;60508;42.622;25.416;2023-11-21T04:05:14;4.43;;;2.67;;
45077;SDS011;60508;42.622;25.416;2023-11-21T04:07:51;3.38;;;2.90;;
45077;SDS011;60508;42.622;25.416;2023-11-21T04:10:18;7.57;;;2.28;;
45077;SDS011;60508;42.622;25.416;2023-11-21T04:12:44;3.90;;;2.67;;
45077;SDS011;60508;42.622;25.416;2023-11-21T04:15:11;4.15;;;2.58;;
45077;SDS011;60508;42.622;25.416;2023-11-21T04:17:41;5.00;;;2.78;;
45077;SDS011;60508;42.622;25.416;2023-11-21T04:20:08;3.28;;;2.15;;
45077;SDS011;60508;42.622;25.416;2023-11-21T04:22:36;3.33;;;1.90;;
45077;SDS011;60508;42.622;25.416;2023-11-21T04:25:17;5.35;;;1.80;;
45077;SDS011;60508;42.622;25.416;2023-11-21T04:27:44;1.42;;;1.30;;
45077;SDS011;60508;42.622;25.416;2023-11-21T04:30:12;1.40;;;1.30;;
45077;SDS011;60508;42.622;25.416;2023-11-21T04:32:49;3.55;;;1.38;;
45077;SDS011;60508;42.622;25.416;2023-11-21T04:35:17;2.65;;;1.42;;
45077;SDS011;60508;42.622;25.416;2023-11-21T04:37:43;2.00;;;1.27;;
45077;SDS011;60508;42.622;25.416;2023-11-21T04:40:10;1.50;;;1.05;;
45077;SDS011;60508;42.622;25.416;2023-11-21T04:42:47;1.85;;;1.10;;
45077;SDS011;60508;42.622;25.416;2023-11-21T04:45:14;1.67;;;1.52;;
45077;SDS011;60508;42.622;25.416;2023-11-21T04:47:41;1.67;;;1.58;;
45077;SDS011;60508;42.622;25.416;2023-11-21T04:50:20;5.13;;;2.05;;
45077;SDS011;60508;42.622;25.416;2023-11-21T04:52:47;4.45;;;2.33;;
45077;SDS011;60508;42.622;25.416;2023-11-21T04:55:13;5.32;;;4.28;;
45077;SDS011;60508;42.622;25.416;2023-11-21T04:57:42;4.60;;;3.10;;
45077;SDS011;60508;42.622;25.416;2023-11-21T05:00:20;9.27;;;2.17;;
45077;SDS011;60508;42.622;25.416;2023-11-21T05:02:47;6.47;;;2.90;;
45077;SDS011;60508;42.622;25.416;2023-11-21T05:05:13;8.18;;;3.05;;
45077;SDS011;60508;42.622;25.416;2023-11-21T05:07:40;8.48;;;4.00;;
45077;SDS011;60508;42.622;25.416;2023-11-21T05:10:07;11.13;;;3.40;;
45077;SDS011;60508;42.622;25.416;2023-11-21T05:12:38;4.68;;;3.88;;
45077;SDS011;60508;42.622;25.416;2023-11-21T05:15:15;4.70;;;3.17;;
45077;SDS011;60508;42.622;25.416;2023-11-21T05:17:44;4.32;;;2.40;;
45077;SDS011;60508;42.622;25.416;2023-11-21T05:20:12;4.18;;;2.22;;
45077;SDS011;60508;42.622;25.416;2023-11-21T05:22:49;4.20;;;2.10;;
45077;SDS011;60508;42.622;25.416;2023-11-21T05:25:16;4.22;;;1.90;;
45077;SDS011;60508;42.622;25.416;2023-11-21T05:27:45;2.13;;;1.35;;
45077;SDS011;60508;42.622;25.416;2023-11-21T05:30:22;7.40;;;2.17;;
45077;SDS011;60508;42.622;25.416;2023-11-21T05:32:49;4.60;;;1.92;;
45077;SDS011;60508;42.622;25.416;2023-11-21T05:35:15;6.05;;;4.50;;
45077;SDS011;60508;42.622;25.416;2023-11-21T05:37:42;6.00;;;4.78;;
45077;SDS011;60508;42.622;25.416;2023-11-21T05:40:09;5.10;;;4.60;;
45077;SDS011;60508;42.622;25.416;2023-11-21T05:42:46;5.50;;;3.20;;
45077;SDS011;60508;42.622;25.416;2023-11-21T05:45:12;3.83;;;3.53;;
45077;SDS011;60508;42.622;25.416;2023-11-21T05:47:40;5.03;;;3.47;;
45077;SDS011;60508;42.622;25.416;2023-11-21T05:50:18;3.72;;;2.67;;
45077;SDS011;60508;42.622;25.416;2023-11-21T05:52:45;4.00;;;2.28;;
45077;SDS011;60508;42.622;25.416;2023-11-21T05:55:13;7.47;;;2.13;;
45077;SDS011;60508;42.622;25.416;2023-11-21T05:57:40;4.25;;;2.53;;
45077;SDS011;60508;42.622;25.416;2023-11-21T06:00:09;6.90;;;4.73;;
45077;SDS011;60508;42.622;25.416;2023-11-21T06:02:51;15.35;;;7.10;;
45077;SDS011;60508;42.622;25.416;2023-11-21T06:05:29;3.00;;;2.50;;
45077;SDS011;60508;42.622;25.416;2023-11-21T06:07:58;2.60;;;2.05;;
45077;SDS011;60508;42.622;25.416;2023-11-21T06:10:25;7.10;;;5.18;;
45077;SDS011;60508;42.622;25.416;2023-11-21T06:12:52;6.45;;;4.07;;
45077;SDS011;60508;42.622;25.416;2023-11-21T06:15:29;12.00;;;7.10;;
45077;SDS011;60508;42.622;25.416;2023-11-21T06:17:56;18.42;;;7.70;;
45077;SDS011;60508;42.622;25.416;2023-11-21T06:20:23;15.88;;;10.10;;
45077;SDS011;60508;42.622;25.416;2023-11-21T06:23:00;21.40;;;9.55;;
45077;SDS011;60508;42.622;25.416;2023-11-21T06:25:29;15.32;;;10.07;;
45077;SDS011;60508;42.622;25.416;2023-11-21T06:27:59;16.33;;;10.48;;
45077;SDS011;60508;42.622;25.416;2023-11-21T06:30:36;16.40;;;10.10;;
45077;SDS011;60508;42.622;25.416;2023-11-21T06:33:03;23.15;;;11.50;;
45077;SDS011;60508;42.622;25.416;2023-11-21T06:35:29;17.40;;;10.45;;
45077;SDS011;60508;42.622;25.416;2023-11-21T06:40:25;18.58;;;10.27;;
45077;SDS011;60508;42.622;25.416;2023-11-21T06:42:59;22.33;;;11.77;;
45077;SDS011;60508;42.622;25.416;2023-11-21T06:45:25;43.83;;;13.18;;
45077;SDS011;60508;42.622;25.416;2023-11-21T06:47:52;25.98;;;12.65;;
45077;SDS011;60508;42.622;25.416;2023-11-21T06:50:19;22.65;;;13.05;;
45077;SDS011;60508;42.622;25.416;2023-11-21T06:52:56;26.08;;;14.13;;
45077;SDS011;60508;42.622;25.416;2023-11-21T06:55:22;21.30;;;14.43;;
45077;SDS011;60508;42.622;25.416;2023-11-21T06:57:49;28.15;;;16.25;;
45077;SDS011;60508;42.622;25.416;2023-11-21T07:00:35;28.67;;;17.08;;
45077;SDS011;60508;42.622;25.416;2023-11-21T07:03:01;24.63;;;15.32;;
45077;SDS011;60508;42.622;25.416;2023-11-21T07:05:28;32.40;;;17.75;;
45077;SDS011;60508;42.622;25.416;2023-11-21T07:07:54;17.23;;;11.20;;
45077;SDS011;60508;42.622;25.416;2023-11-21T07:10:21;14.10;;;9.98;;
45077;SDS011;60508;42.622;25.416;2023-11-21T07:12:48;16.23;;;9.63;;
45077;SDS011;60508;42.622;25.416;2023-11-21T07:15:14;14.98;;;10.18;;
45077;SDS011;60508;42.622;25.416;2023-11-21T07:17:41;13.73;;;9.35;;
45077;SDS011;60508;42.622;25.416;2023-11-21T07:20:07;18.38;;;9.38;;
45077;SDS011;60508;42.622;25.416;2023-11-21T07:22:34;15.50;;;9.65;;
45077;SDS011;60508;42.622;25.416;2023-11-21T07:25:01;23.20;;;10.80;;
45077;SDS011;60508;42.622;25.416;2023-11-21T07:27:27;23.48;;;8.93;;
45077;SDS011;60508;42.622;25.416;2023-11-21T07:30:05;15.77;;;8.85;;
45077;SDS011;60508;42.622;25.416;2023-11-21T07:32:34;16.50;;;8.95;;
45077;SDS011;60508;42.622;25.416;2023-11-21T07:35:01;12.85;;;7.97;;
45077;SDS011;60508;42.622;25.416;2023-11-21T07:37:36;11.05;;;6.95;;
45077;SDS011;60508;42.622;25.416;2023-11-21T07:40:04;9.25;;;5.70;;
45077;SDS011;60508;42.622;25.416;2023-11-21T07:42:31;12.95;;;7.00;;
45077;SDS011;60508;42.622;25.416;2023-11-21T07:44:58;7.03;;;5.45;;
45077;SDS011;60508;42.622;25.416;2023-11-21T07:47:24;5.70;;;3.78;;
45077;SDS011;60508;42.622;25.416;2023-11-21T07:49:53;5.57;;;3.10;;
45077;SDS011;60508;42.622;25.416;2023-11-21T07:52:22;5.57;;;3.78;;
45077;SDS011;60508;42.622;25.416;2023-11-21T07:54:59;7.70;;;3.97;;
45077;SDS011;60508;42.622;25.416;2023-11-21T07:57:26;5.00;;;3.50;;
45077;SDS011;60508;42.622;25.416;2023-11-21T07:59:52;9.15;;;5.85;;
45077;SDS011;60508;42.622;25.416;2023-11-21T08:02:30;4.28;;;3.38;;
45077;SDS011;60508;42.622;25.416;2023-11-21T08:04:57;4.93;;;2.63;;
45077;SDS011;60508;42.622;25.416;2023-11-21T08:07:23;5.43;;;2.80;;
45077;SDS011;60508;42.622;25.416;2023-11-21T08:09:49;4.00;;;3.03;;
45077;SDS011;60508;42.622;25.416;2023-11-21T08:12:16;6.60;;;5.00;;
45077;SDS011;60508;42.622;25.416;2023-11-21T08:14:53;9.32;;;5.90;;
45077;SDS011;60508;42.622;25.416;2023-11-21T08:17:20;6.60;;;4.78;;
45077;SDS011;60508;42.622;25.416;2023-11-21T08:19:47;24.85;;;15.80;;
45077;SDS011;60508;42.622;25.416;2023-11-21T08:22:15;24.58;;;15.52;;
45077;SDS011;60508;42.622;25.416;2023-11-21T08:24:44;19.92;;;13.55;;
45077;SDS011;60508;42.622;25.416;2023-11-21T08:27:18;18.42;;;12.50;;
45077;SDS011;60508;42.622;25.416;2023-11-21T08:29:45;17.67;;;11.45;;
45077;SDS011;60508;42.622;25.416;2023-11-21T08:32:12;19.05;;;10.90;;
45077;SDS011;60508;42.622;25.416;2023-11-21T08:34:40;13.93;;;7.63;;
45077;SDS011;60508;42.622;25.416;2023-11-21T08:37:09;12.48;;;7.82;;
45077;SDS011;60508;42.622;25.416;2023-11-21T08:39:44;9.88;;;6.03;;
45077;SDS011;60508;42.622;25.416;2023-11-21T08:42:11;7.32;;;5.57;;
45077;SDS011;60508;42.622;25.416;2023-11-21T08:44:37;6.63;;;4.85;;
45077;SDS011;60508;42.622;25.416;2023-11-21T08:47:06;8.80;;;5.47;;
45077;SDS011;60508;42.622;25.416;2023-11-21T08:49:42;10.05;;;5.57;;
45077;SDS011;60508;42.622;25.416;2023-11-21T08:52:09;15.68;;;7.78;;
45077;SDS011;60508;42.622;25.416;2023-11-21T08:54:35;18.05;;;7.78;;
45077;SDS011;60508;42.622;25.416;2023-11-21T08:57:03;13.50;;;6.55;;
45077;SDS011;60508;42.622;25.416;2023-11-21T08:59:30;12.55;;;6.70;;
45077;SDS011;60508;42.622;25.416;2023-11-21T09:01:56;10.27;;;5.93;;
45077;SDS011;60508;42.622;25.416;2023-11-21T09:04:23;6.43;;;4.68;;
45077;SDS011;60508;42.622;25.416;2023-11-21T09:06:57;7.50;;;3.55;;
45077;SDS011;60508;42.622;25.416;2023-11-21T09:09:26;5.25;;;3.50;;
45077;SDS011;60508;42.622;25.416;2023-11-21T09:11:52;8.38;;;3.85;;
45077;SDS011;60508;42.622;25.416;2023-11-21T09:14:29;8.05;;;4.00;;
45077;SDS011;60508;42.622;25.416;2023-11-21T09:16:56;4.82;;;3.70;;
45077;SDS011;60508;42.622;25.416;2023-11-21T09:19:22;9.45;;;4.78;;
45077;SDS011;60508;42.622;25.416;2023-11-21T09:21:49;4.28;;;3.80;;
45077;SDS011;60508;42.622;25.416;2023-11-21T09:24:15;9.27;;;3.20;;
45077;SDS011;60508;42.622;25.416;2023-11-21T09:26:52;6.68;;;3.30;;
45077;SDS011;60508;42.622;25.416;2023-11-21T09:29:19;4.32;;;3.13;;
45077;SDS011;60508;42.622;25.416;2023-11-21T09:31:45;8.82;;;3.38;;
45077;SDS011;60508;42.622;25.416;2023-11-21T09:34:22;6.93;;;4.50;;
45077;SDS011;60508;42.622;25.416;2023-11-21T09:36:49;5.53;;;3.95;;
45077;SDS011;60508;42.622;25.416;2023-11-21T09:39:15;10.15;;;5.07;;
45077;SDS011;60508;42.622;25.416;2023-11-21T09:44:18;6.05;;;4.22;;
45077;SDS011;60508;42.622;25.416;2023-11-21T09:46:47;6.40;;;3.60;;
45077;SDS011;60508;42.622;25.416;2023-11-21T09:51:46;7.93;;;3.42;;
45077;SDS011;60508;42.622;25.416;2023-11-21T09:54:13;5.50;;;3.13;;
45077;SDS011;60508;42.622;25.416;2023-11-21T09:56:51;5.53;;;3.65;;
45077;SDS011;60508;42.622;25.416;2023-11-21T09:59:18;5.07;;;3.17;;
45077;SDS011;60508;42.622;25.416;2023-11-21T10:01:45;5.07;;;2.13;;
45077;SDS011;60508;42.622;25.416;2023-11-21T10:04:13;5.03;;;1.80;;
45077;SDS011;60508;42.622;25.416;2023-11-21T10:06:40;4.20;;;2.20;;
45077;SDS011;60508;42.622;25.416;2023-11-21T10:09:23;3.47;;;2.45;;
45077;SDS011;60508;42.622;25.416;2023-11-21T10:11:53;2.97;;;2.08;;
45077;SDS011;60508;42.622;25.416;2023-11-21T10:14:23;3.05;;;2.72;;
45077;SDS011;60508;42.622;25.416;2023-11-21T10:19:19;4.63;;;1.70;;
45077;SDS011;60508;42.622;25.416;2023-11-21T10:21:47;3.88;;;1.73;;
45077;SDS011;60508;42.622;25.416;2023-11-21T10:24:13;2.20;;;1.00;;
45077;SDS011;60508;42.622;25.416;2023-11-21T10:26:41;3.60;;;1.02;;
45077;SDS011;60508;42.622;25.416;2023-11-21T10:29:08;2.13;;;1.42;;
45077;SDS011;60508;42.622;25.416;2023-11-21T10:31:35;4.72;;;1.02;;
45077;SDS011;60508;42.622;25.416;2023-11-21T10:34:18;2.08;;;1.23;;
45077;SDS011;60508;42.622;25.416;2023-11-21T10:36:56;2.92;;;1.10;;
45077;SDS011;60508;42.622;25.416;2023-11-21T10:39:24;1.42;;;1.20;;
45077;SDS011;60508;42.622;25.416;2023-11-21T10:41:56;1.67;;;1.30;;
45077;SDS011;60508;42.622;25.416;2023-11-21T10:44:33;1.30;;;0.90;;
45077;SDS011;60508;42.622;25.416;2023-11-21T10:47:00;1.75;;;1.10;;
45077;SDS011;60508;42.622;25.416;2023-11-21T10:49:28;1.73;;;1.38;;
45077;SDS011;60508;42.622;25.416;2023-11-21T10:51:55;1.73;;;1.05;;
45077;SDS011;60508;42.622;25.416;2023-11-21T10:54:30;1.50;;;1.23;;
45077;SDS011;60508;42.622;25.416;2023-11-21T10:56:57;1.63;;;1.00;;
45077;SDS011;60508;42.622;25.416;2023-11-21T10:59:26;4.28;;;1.13;;
45077;SDS011;60508;42.622;25.416;2023-11-21T11:01:55;1.58;;;1.00;;
45077;SDS011;60508;42.622;25.416;2023-11-21T11:04:24;3.17;;;1.27;;
45077;SDS011;60508;42.622;25.416;2023-11-21T11:09:32;1.30;;;0.90;;
45077;SDS011;60508;42.622;25.416;2023-11-21T11:12:02;3.28;;;1.17;;
45077;SDS011;60508;42.622;25.416;2023-11-21T11:14:33;1.65;;;1.15;;
45077;SDS011;60508;42.622;25.416;2023-11-21T11:16:59;2.22;;;1.20;;
45077;SDS011;60508;42.622;25.416;2023-11-21T11:19:39;3.17;;;1.33;;
45077;SDS011;60508;42.622;25.416;2023-11-21T11:32:54;1.92;;;1.63;;
45077;SDS011;60508;42.622;25.416;2023-11-21T11:36:05;3.17;;;1.63;;
45077;SDS011;60508;42.622;25.416;2023-11-21T11:38:37;1.85;;;1.20;;
45077;SDS011;60508;42.622;25.416;2023-11-21T11:41:14;3.10;;;2.65;;
45077;SDS011;60508;42.622;25.416;2023-11-21T11:43:52;2.80;;;2.42;;
45077;SDS011;60508;42.622;25.416;2023-11-21T11:46:19;4.10;;;2.75;;
45077;SDS011;60508;42.622;25.416;2023-11-21T11:48:48;4.00;;;2.42;;
45077;SDS011;60508;42.622;25.416;2023-11-21T11:51:39;2.35;;;1.83;;
45077;SDS011;60508;42.622;25.416;2023-11-21T11:54:07;10.73;;;5.47;;
45077;SDS011;60508;42.622;25.416;2023-11-21T11:56:34;1.65;;;1.50;;
45077;SDS011;60508;42.622;25.416;2023-11-21T11:59:05;3.90;;;2.35;;
45077;SDS011;60508;42.622;25.416;2023-11-21T12:01:35;2.75;;;2.22;;
45077;SDS011;60508;42.622;25.416;2023-11-21T12:06:43;16.83;;;9.68;;
45077;SDS011;60508;42.622;25.416;2023-11-21T12:09:28;14.27;;;8.40;;
45077;SDS011;60508;42.622;25.416;2023-11-21T12:12:07;11.07;;;6.25;;
45077;SDS011;60508;42.622;25.416;2023-11-21T12:14:34;14.68;;;8.85;;
45077;SDS011;60508;42.622;25.416;2023-11-21T12:17:02;13.30;;;5.20;;
45077;SDS011;60508;42.622;25.416;2023-11-21T12:19:34;6.07;;;3.10;;
45077;SDS011;60508;42.622;25.416;2023-11-21T12:22:00;5.28;;;4.50;;
45077;SDS011;60508;42.622;25.416;2023-11-21T12:24:37;8.65;;;3.53;;
45077;SDS011;60508;42.622;25.416;2023-11-21T12:27:04;7.88;;;3.97;;
45077;SDS011;60508;42.622;25.416;2023-11-21T12:29:31;5.55;;;2.60;;
45077;SDS011;60508;42.622;25.416;2023-11-21T12:31:59;1.70;;;1.17;;
45077;SDS011;60508;42.622;25.416;2023-11-21T12:34:37;2.17;;;1.52;;
45077;SDS011;60508;42.622;25.416;2023-11-21T12:37:05;5.57;;;1.77;;
45077;SDS011;60508;42.622;25.416;2023-11-21T12:39:31;2.30;;;1.38;;
45077;SDS011;60508;42.622;25.416;2023-11-21T12:42:09;2.80;;;1.30;;
45077;SDS011;60508;42.622;25.416;2023-11-21T12:44:36;2.05;;;1.52;;
45077;SDS011;60508;42.622;25.416;2023-11-21T12:47:07;7.28;;;2.33;;
45077;SDS011;60508;42.622;25.416;2023-11-21T12:49:41;3.20;;;1.58;;
45077;SDS011;60508;42.622;25.416;2023-11-21T12:52:10;5.60;;;2.67;;
45077;SDS011;60508;42.622;25.416;2023-11-21T12:54:37;4.82;;;2.85;;
45077;SDS011;60508;42.622;25.416;2023-11-21T12:57:04;2.58;;;1.90;;
45077;SDS011;60508;42.622;25.416;2023-11-21T12:59:34;2.90;;;1.70;;
45077;SDS011;60508;42.622;25.416;2023-11-21T13:02:00;4.47;;;2.08;;
45077;SDS011;60508;42.622;25.416;2023-11-21T13:04:51;2.70;;;1.75;;
45077;SDS011;60508;42.622;25.416;2023-11-21T13:07:19;3.08;;;1.85;;
45077;SDS011;60508;42.622;25.416;2023-11-21T13:09:46;2.38;;;1.77;;
45077;SDS011;60508;42.622;25.416;2023-11-21T13:12:12;5.72;;;1.95;;
45077;SDS011;60508;42.622;25.416;2023-11-21T13:14:42;4.05;;;1.80;;
45077;SDS011;60508;42.622;25.416;2023-11-21T13:17:19;4.35;;;2.67;;
45077;SDS011;60508;42.622;25.416;2023-11-21T13:19:48;4.40;;;1.88;;
45077;SDS011;60508;42.622;25.416;2023-11-21T13:22:14;1.63;;;1.33;;
45077;SDS011;60508;42.622;25.416;2023-11-21T13:24:41;4.22;;;2.17;;
45077;SDS011;60508;42.622;25.416;2023-11-21T13:27:18;4.03;;;1.90;;
45077;SDS011;60508;42.622;25.416;2023-11-21T13:29:44;6.10;;;1.75;;
45077;SDS011;60508;42.622;25.416;2023-11-21T13:32:11;4.43;;;2.92;;
45077;SDS011;60508;42.622;25.416;2023-11-21T13:34:38;3.38;;;1.92;;
45077;SDS011;60508;42.622;25.416;2023-11-21T13:37:04;3.95;;;2.58;;
45077;SDS011;60508;42.622;25.416;2023-11-21T13:39:43;5.07;;;1.98;;
45077;SDS011;60508;42.622;25.416;2023-11-21T13:42:12;2.95;;;2.25;;
45077;SDS011;60508;42.622;25.416;2023-11-21T13:44:38;5.70;;;2.72;;
45077;SDS011;60508;42.622;25.416;2023-11-21T13:47:22;6.72;;;2.67;;
45077;SDS011;60508;42.622;25.416;2023-11-21T13:49:51;3.22;;;2.17;;
45077;SDS011;60508;42.622;25.416;2023-11-21T13:52:19;5.32;;;2.72;;
45077;SDS011;60508;42.622;25.416;2023-11-21T13:54:58;2.75;;;2.35;;
45077;SDS011;60508;42.622;25.416;2023-11-21T13:57:27;5.90;;;2.90;;
45077;SDS011;60508;42.622;25.416;2023-11-21T13:59:54;7.45;;;3.63;;
45077;SDS011;60508;42.622;25.416;2023-11-21T14:02:31;8.38;;;3.75;;
45077;SDS011;60508;42.622;25.416;2023-11-21T14:05:05;4.55;;;3.55;;
45077;SDS011;60508;42.622;25.416;2023-11-21T14:07:35;7.50;;;3.78;;
45077;SDS011;60508;42.622;25.416;2023-11-21T14:10:02;5.40;;;3.95;;
45077;SDS011;60508;42.622;25.416;2023-11-21T14:12:30;11.00;;;3.88;;
45077;SDS011;60508;42.622;25.416;2023-11-21T14:15:00;7.03;;;3.83;;
45077;SDS011;60508;42.622;25.416;2023-11-21T14:17:31;6.50;;;4.22;;
45077;SDS011;60508;42.622;25.416;2023-11-21T14:19:58;36.85;;;7.75;;
45077;SDS011;60508;42.622;25.416;2023-11-21T14:22:24;12.65;;;8.23;;
45077;SDS011;60508;42.622;25.416;2023-11-21T14:24:51;11.77;;;7.50;;
45077;SDS011;60508;42.622;25.416;2023-11-21T14:27:29;9.95;;;6.30;;
45077;SDS011;60508;42.622;25.416;2023-11-21T14:29:55;8.10;;;5.63;;
45077;SDS011;60508;42.622;25.416;2023-11-21T14:32:23;17.98;;;8.82;;
45077;SDS011;60508;42.622;25.416;2023-11-21T14:34:51;10.73;;;6.63;;
45077;SDS011;60508;42.622;25.416;2023-11-21T14:37:18;8.95;;;6.93;;
45077;SDS011;60508;42.622;25.416;2023-11-21T14:39:45;13.88;;;6.65;;
45077;SDS011;60508;42.622;25.416;2023-11-21T14:42:26;9.13;;;5.57;;
45077;SDS011;60508;42.622;25.416;2023-11-21T14:44:55;9.07;;;6.22;;
45077;SDS011;60508;42.622;25.416;2023-11-21T14:47:26;9.77;;;6.32;;
45077;SDS011;60508;42.622;25.416;2023-11-21T14:49:56;11.82;;;7.32;;
45077;SDS011;60508;42.622;25.416;2023-11-21T14:52:25;11.98;;;7.90;;
45077;SDS011;60508;42.622;25.416;2023-11-21T14:54:59;7.78;;;5.50;;
45077;SDS011;60508;42.622;25.416;2023-11-21T14:57:52;20.05;;;8.52;;
45077;SDS011;60508;42.622;25.416;2023-11-21T15:00:29;9.55;;;4.93;;
45077;SDS011;60508;42.622;25.416;2023-11-21T15:03:03;9.15;;;4.80;;
45077;SDS011;60508;42.622;25.416;2023-11-21T15:05:30;13.55;;;5.45;;
45077;SDS011;60508;42.622;25.416;2023-11-21T15:07:57;20.13;;;11.13;;
45077;SDS011;60508;42.622;25.416;2023-11-21T15:10:37;23.52;;;16.17;;
45077;SDS011;60508;42.622;25.416;2023-11-21T15:13:29;10.68;;;8.50;;